• Join FlightAware (Why Join?)
  • Login
  • US Flag 
02:29AM EDT


 

Airport Tracker/Info


-or-


 

Live Flight TrackerFlight Track Log ✈ HXA2669 ✈ 10-Jul-2014 ✈ ZYTL / DLC - ZBCF / CIF

Flight Track Log - Related Links

Times and Time Zones

All times are in EDT time to prevent confusion due to time zone crossing. See the HXA2669 flight status page for this flight to view local times or setup timezone preferences in your user account.

Time Position Orientation Groundspeed Altitude Reporting Facility
EDT Latitude Longitude Course Direction KTS MPH feet Rate Location/Type
07:15PM 39.2653 121.3098 329° Northwest  Level Estimated
07:16PM 39.3087 121.2765 329° Northwest  Level Estimated
07:17PM 39.3520 121.2432 329° Northwest  Level Estimated
07:18PM 39.3953 121.2098 329° Northwest  Level Estimated
07:19PM 39.4386 121.1764 329° Northwest  Level Estimated
07:20PM 39.4819 121.1430 329° Northwest  Level Estimated
07:21PM 39.5252 121.1095 329° Northwest  Level Estimated
07:22PM 39.5685 121.0760 329° Northwest  Level Estimated
07:23PM 39.6118 121.0424 329° Northwest  Level Estimated
07:24PM 39.6550 121.0088 329° Northwest  Level Estimated
07:25PM 39.6982 120.9752 329° Northwest  Level Estimated
07:26PM 39.7415 120.9415 329° Northwest  Level Estimated
07:27PM 39.7847 120.9077 329° Northwest  Level Estimated
07:28PM 39.8279 120.8739 329° Northwest  Level Estimated
07:29PM 39.8712 120.8401 329° Northwest  Level Estimated
07:30PM 39.9143 120.8063 329° Northwest  Level Estimated
07:31PM 39.9575 120.7723 329° Northwest  Level Estimated
07:32PM 40.0007 120.7384 329° Northwest  Level Estimated
07:33PM 40.0439 120.7044 329° Northwest  Level Estimated
07:34PM 40.0871 120.6704 329° Northwest  Level Estimated
07:35PM 40.1302 120.6363 329° Northwest  Level Estimated
07:36PM 40.1733 120.6022 329° Northwest  Level Estimated
07:37PM 40.2165 120.5680 329° Northwest  Level Estimated
07:38PM 40.2596 120.5338 329° Northwest  Level Estimated
07:39PM 40.3027 120.4995 329° Northwest  Level Estimated
07:40PM 40.3458 120.4652 329° Northwest  Level Estimated
07:41PM 40.3889 120.4309 329° Northwest  Level Estimated
07:42PM 40.4320 120.3965 329° Northwest  Level Estimated
07:43PM 40.4750 120.3621 329° Northwest  Level Estimated
07:44PM 40.5181 120.3276 329° Northwest  Level Estimated
07:45PM 40.5611 120.2931 329° Northwest  Level Estimated
07:46PM 40.6042 120.2585 329° Northwest  Level Estimated
07:47PM 40.6472 120.2239 329° Northwest  Level Estimated
07:48PM 40.6902 120.1893 329° Northwest  Level Estimated
07:49PM 40.7332 120.1546 329° Northwest  Level Estimated
07:50PM 40.7762 120.1198 329° Northwest  Level Estimated
07:51PM 40.8192 120.0851 329° Northwest  Level Estimated
07:52PM 40.8622 120.0502 328° Northwest  Level Estimated
07:53PM 40.9052 120.0153 328° Northwest  Level Estimated
07:54PM 40.9481 119.9804 328° Northwest  Level Estimated
07:55PM 40.9911 119.9455 328° Northwest  Level Estimated
07:56PM 41.0340 119.9104 328° Northwest  Level Estimated
07:57PM 41.0769 119.8754 328° Northwest  Level Estimated
07:58PM 41.1198 119.8403 328° Northwest  Level Estimated
07:59PM 41.1628 119.8051 328° Northwest  Level Estimated
08:00PM 41.2056 119.7699 328° Northwest  Level Estimated
08:01PM 41.2485 119.7347 328° Northwest  Level Estimated
08:02PM 41.2914 119.6994 328° Northwest  Level Estimated
08:03PM 41.3343 119.6641 328° Northwest  Level Estimated
08:04PM 41.3771 119.6287 328° Northwest  Level Estimated
08:05PM 41.4199 119.5933 328° Northwest  Level Estimated
08:06PM 41.4628 119.5578 328° Northwest  Level Estimated
08:07PM 41.5056 119.5223 328° Northwest  Level Estimated
08:08PM 41.5484 119.4867 328° Northwest  Level Estimated
08:09PM 41.5912 119.4511 328° Northwest  Level Estimated
08:10PM 41.6340 119.4154 328° Northwest  Level Estimated
08:11PM 41.6767 119.3797 328° Northwest  Level Estimated
08:12PM 41.7195 119.3439 328° Northwest  Level Estimated
08:13PM 41.7622 119.3081 328° Northwest  Level Estimated
08:14PM 41.8050 119.2723 328° Northwest  Level Estimated
08:15PM 41.8477 119.2364 328° Northwest  Level Estimated
08:16PM 41.8904 119.2004 328° Northwest  Level Estimated
08:17PM 41.9331 119.1644 328° Northwest  Level Estimated
08:18PM 41.9758 119.1284 328° Northwest  Level Estimated
08:19PM 42.0185 119.0923 328° Northwest  Level Estimated
08:20PM 42.0612 119.0562 328° Northwest  Level Estimated
08:21PM 42.1038 119.0200 328° Northwest  Level Estimated
08:22PM 42.1465 118.9837 328° Northwest  Level Estimated
08:23PM 42.1891 118.9474 328° Northwest  Level Estimated
08:24PM 42.2318 118.9111 328° Northwest  Level Estimated
08:25PM 42.2350 118.9083 328° Northwest  Level Estimated
08:26PM 42.2350 118.9083 North  Level Estimated
08:27PM 42.2350 118.9083 North  Level Estimated
08:28PM 42.2350 118.9083 North  Level Estimated
08:29PM 42.2350 118.9083 North  Level Estimated
08:30PM 42.2350 118.9083 North  Level Estimated
08:31PM 42.2350 118.9083 North  Level Estimated
08:32PM 42.2350 118.9083 North  Level Estimated
08:33PM 42.2350 118.9083 North  Level Estimated
08:34PM 42.2350 118.9083 North  Level Estimated
08:35PM 42.2350 118.9083 North  Level Estimated
08:36PM 42.2350 118.9083 North  Level Estimated
08:37PM 42.2350 118.9083 North  Level Estimated
08:38PM 42.2350 118.9083 North  Level Estimated
08:39PM 42.2350 118.9083 North  Level Estimated
08:40PM 42.2350 118.9083 North  Level Estimated
08:41PM 42.2350 118.9083 North  Level Estimated